createdAt,value
2019-04-13T00:02:16.220Z,2.90
2019-04-13T00:05:04.512Z,2.90
2019-04-13T00:07:33.837Z,2.90
2019-04-13T00:10:03.092Z,2.90
2019-04-13T00:12:33.291Z,2.80
2019-04-13T00:15:02.547Z,2.80
2019-04-13T00:17:31.780Z,2.70
2019-04-13T00:20:01.076Z,2.70
2019-04-13T00:22:30.670Z,2.60
2019-04-13T00:24:59.919Z,2.60
2019-04-13T00:27:29.380Z,2.60
2019-04-13T00:29:58.564Z,2.50
2019-04-13T00:32:27.806Z,2.50
2019-04-13T00:34:57.038Z,2.40
2019-04-13T00:37:26.226Z,2.40
2019-04-13T00:39:55.493Z,2.40
2019-04-13T00:42:24.799Z,2.30
2019-04-13T00:44:54.147Z,2.30
2019-04-13T00:47:23.428Z,2.20
2019-04-13T00:49:52.600Z,2.20
2019-04-13T00:52:22.317Z,2.10
2019-04-13T00:54:52.330Z,2.10
2019-04-13T00:57:21.539Z,2.00
2019-04-13T00:59:50.713Z,2.00
2019-04-13T01:02:20.039Z,2.00
2019-04-13T01:04:53.776Z,1.90
2019-04-13T01:07:20.246Z,1.90
2019-04-13T01:09:49.891Z,1.80
2019-04-13T01:12:19.893Z,1.80
2019-04-13T01:14:49.203Z,1.80
2019-04-13T01:17:18.531Z,1.70
2019-04-13T01:19:47.710Z,1.70
2019-04-13T01:22:16.979Z,1.60
2019-04-13T01:24:46.314Z,1.60
2019-04-13T01:27:15.505Z,1.60
2019-04-13T01:29:44.834Z,1.60
2019-04-13T01:32:14.417Z,1.60
2019-04-13T01:34:44.071Z,1.60
2019-04-13T01:37:32.634Z,1.50
2019-04-13T01:40:02.199Z,1.50
2019-04-13T01:42:31.531Z,1.50
2019-04-13T01:45:01.187Z,1.50
2019-04-13T01:47:30.875Z,1.50
2019-04-13T01:50:00.073Z,1.40
2019-04-13T01:52:29.246Z,1.40
2019-04-13T01:54:58.449Z,1.40
2019-04-13T01:57:27.749Z,1.30
2019-04-13T01:59:57.318Z,1.30
2019-04-13T02:02:44.175Z,1.30
2019-04-13T02:05:45.265Z,1.30
2019-04-13T02:08:33.835Z,1.20
2019-04-13T02:11:22.121Z,1.20
2019-04-13T02:13:51.686Z,1.10
2019-04-13T02:16:20.937Z,1.10
2019-04-13T02:18:50.483Z,1.00
2019-04-13T02:21:19.675Z,1.00
2019-04-13T02:23:48.856Z,1.00
2019-04-13T02:26:20.173Z,1.00
2019-04-13T02:28:49.073Z,1.00
2019-04-13T02:31:18.411Z,0.90
2019-04-13T02:33:47.646Z,0.90
2019-04-13T02:36:17.255Z,0.90
2019-04-13T02:38:46.501Z,0.90
2019-04-13T02:41:16.349Z,0.80
2019-04-13T02:43:45.665Z,0.80
2019-04-13T02:46:15.602Z,0.70
2019-04-13T02:48:44.915Z,0.70
2019-04-13T02:51:14.173Z,0.60
2019-04-13T02:53:43.493Z,0.50
2019-04-13T02:56:13.096Z,0.50
2019-04-13T02:58:42.400Z,0.50
2019-04-13T03:01:11.731Z,0.50
2019-04-13T03:03:41.009Z,0.50
2019-04-13T03:06:10.723Z,0.50
2019-04-13T03:08:39.964Z,0.40
2019-04-13T03:11:09.144Z,0.50
2019-04-13T03:13:38.481Z,0.50
2019-04-13T03:16:39.226Z,0.50
2019-04-13T03:19:13.168Z,0.50
2019-04-13T03:21:42.676Z,0.50
2019-04-13T03:24:11.861Z,0.50
2019-04-13T03:26:41.176Z,0.50
2019-04-13T03:29:11.187Z,0.40
2019-04-13T03:31:40.829Z,0.40
2019-04-13T03:34:10.514Z,0.40
2019-04-13T03:36:40.128Z,0.30
2019-04-13T03:39:09.728Z,0.30
2019-04-13T03:41:38.966Z,0.30
2019-04-13T03:44:08.143Z,0.30
2019-04-13T03:46:37.398Z,0.30
2019-04-13T03:49:06.932Z,0.20
2019-04-13T03:51:36.228Z,0.30
2019-04-13T03:54:05.499Z,0.30
2019-04-13T03:56:35.143Z,0.30
2019-04-13T03:59:04.741Z,0.30
2019-04-13T04:01:33.895Z,0.30
2019-04-13T04:04:03.544Z,0.30
2019-04-13T04:06:32.889Z,0.20
2019-04-13T04:09:02.533Z,0.20
2019-04-13T04:11:31.799Z,0.20
2019-04-13T04:14:01.053Z,0.20
2019-04-13T04:16:30.891Z,0.20
2019-04-13T04:19:00.329Z,0.20
2019-04-13T04:21:29.967Z,0.20
2019-04-13T04:23:59.522Z,0.20
2019-04-13T04:26:28.791Z,0.10
2019-04-13T04:28:58.303Z,0.10
2019-04-13T04:31:27.572Z,0.10
2019-04-13T04:33:57.221Z,0.10
2019-04-13T04:36:26.560Z,0.10
2019-04-13T04:38:55.885Z,0.10
2019-04-13T04:41:25.219Z,0.10
2019-04-13T04:43:54.539Z,0.00
2019-04-13T04:46:23.796Z,0.00
2019-04-13T04:48:53.349Z,-0.10
2019-04-13T04:51:22.965Z,-0.10
2019-04-13T04:53:52.477Z,-0.10
2019-04-13T04:56:22.104Z,-0.10
2019-04-13T04:58:51.423Z,-0.20
2019-04-13T05:01:21.302Z,-0.20
2019-04-13T05:03:50.624Z,-0.20
2019-04-13T05:06:20.212Z,-0.20
2019-04-13T05:08:49.552Z,-0.20
2019-04-13T05:11:18.921Z,-0.20
2019-04-13T05:13:48.158Z,-0.20
2019-04-13T05:16:17.701Z,-0.20
2019-04-13T05:18:47.341Z,-0.10
2019-04-13T05:21:16.603Z,-0.10
2019-04-13T05:23:45.973Z,0.00
2019-04-13T05:26:15.538Z,0.00
2019-04-13T05:28:44.881Z,0.10
2019-04-13T05:31:14.116Z,0.10
2019-04-13T05:33:43.655Z,0.20
2019-04-13T05:36:12.853Z,0.20
2019-04-13T05:38:42.076Z,0.20
2019-04-13T05:41:11.757Z,0.30
2019-04-13T05:43:41.449Z,0.30
2019-04-13T05:46:10.627Z,0.30
2019-04-13T05:48:40.352Z,0.40
2019-04-13T05:51:09.844Z,0.40
2019-04-13T05:53:39.475Z,0.50
2019-04-13T05:56:08.706Z,0.60
2019-04-13T05:58:37.884Z,0.70
2019-04-13T06:01:07.132Z,0.70
2019-04-13T06:03:36.889Z,0.80
2019-04-13T06:06:06.092Z,0.80
2019-04-13T06:08:36.086Z,0.90
2019-04-13T06:11:05.655Z,1.00
2019-04-13T06:13:35.052Z,1.00
2019-04-13T06:16:08.769Z,1.10
2019-04-13T06:18:36.298Z,1.00
2019-04-13T06:21:06.947Z,1.10
2019-04-13T06:23:36.882Z,1.20
2019-04-13T06:26:06.062Z,1.30
2019-04-13T06:28:35.238Z,1.40
2019-04-13T06:31:23.474Z,1.50
2019-04-13T06:33:59.188Z,1.50
2019-04-13T06:36:28.804Z,1.70
2019-04-13T06:38:59.642Z,1.70
2019-04-13T06:41:29.040Z,1.80
2019-04-13T06:44:01.282Z,1.90
2019-04-13T06:46:29.857Z,2.00
2019-04-13T06:48:59.355Z,2.00
2019-04-13T06:51:29.294Z,2.10
2019-04-13T06:53:58.884Z,2.10
2019-04-13T06:56:28.564Z,2.20
2019-04-13T06:58:58.392Z,2.30
2019-04-13T07:01:28.583Z,2.40
2019-04-13T07:03:57.833Z,2.50
2019-04-13T07:06:29.058Z,2.60
2019-04-13T07:09:16.273Z,2.70
2019-04-13T07:12:07.535Z,2.80
2019-04-13T07:14:36.944Z,2.90
2019-04-13T07:17:14.412Z,3.10
2019-04-13T07:19:44.158Z,3.20
2019-04-13T07:22:13.445Z,3.20
2019-04-13T07:24:43.339Z,3.30
2019-04-13T07:27:12.701Z,3.30
2019-04-13T07:29:41.964Z,3.40
2019-04-13T07:32:11.141Z,3.50
2019-04-13T07:34:40.489Z,3.70
2019-04-13T07:37:12.164Z,3.80
2019-04-13T07:39:40.645Z,3.80
2019-04-13T07:42:09.991Z,3.90
2019-04-13T07:45:01.283Z,3.90
2019-04-13T07:48:01.693Z,4.00
2019-04-13T07:50:50.393Z,4.10
2019-04-13T07:53:22.259Z,4.30
2019-04-13T07:55:52.162Z,4.40
2019-04-13T07:58:22.687Z,4.50
2019-04-13T08:00:52.307Z,4.60
2019-04-13T08:03:21.544Z,4.80
2019-04-13T08:05:50.933Z,4.80
2019-04-13T08:08:20.587Z,4.90
2019-04-13T08:10:49.873Z,4.90
2019-04-13T08:13:19.138Z,5.00
2019-04-13T08:15:48.675Z,5.00
2019-04-13T08:18:26.121Z,5.00
2019-04-13T08:20:55.577Z,5.20
2019-04-13T08:23:24.774Z,5.40
2019-04-13T08:25:54.526Z,5.40
2019-04-13T08:28:23.845Z,5.40
2019-04-13T08:30:53.237Z,5.30
2019-04-13T08:33:22.842Z,5.40
2019-04-13T08:35:52.433Z,5.50
2019-04-13T08:38:21.697Z,5.60
2019-04-13T08:40:50.869Z,5.60
2019-04-13T08:43:20.279Z,5.70
2019-04-13T08:46:08.828Z,5.90
2019-04-13T08:48:38.103Z,5.80
2019-04-13T08:51:07.403Z,5.70
2019-04-13T08:53:36.660Z,5.70
2019-04-13T08:56:05.901Z,5.70
2019-04-13T08:58:35.085Z,5.80
2019-04-13T09:01:04.821Z,5.80
2019-04-13T09:03:34.803Z,5.80
2019-04-13T09:06:04.328Z,5.80
2019-04-13T09:08:33.713Z,5.80
2019-04-13T09:11:04.344Z,5.70
2019-04-13T09:13:34.518Z,5.60
2019-04-13T09:16:04.739Z,5.70
2019-04-13T09:19:06.439Z,5.60
2019-04-13T09:21:47.650Z,5.70
2019-04-13T09:24:14.589Z,5.60
2019-04-13T09:26:43.863Z,5.50
2019-04-13T09:29:14.648Z,5.70
2019-04-13T09:31:44.529Z,5.90
2019-04-13T09:34:28.222Z,6.00
2019-04-13T09:36:44.741Z,6.20
2019-04-13T09:39:14.377Z,6.20
2019-04-13T09:41:46.714Z,6.40
2019-04-13T09:44:31.584Z,6.50
2019-04-13T09:47:06.284Z,6.60
2019-04-13T09:49:35.794Z,6.60
2019-04-13T09:52:05.044Z,6.80
2019-04-13T09:54:34.372Z,6.80
2019-04-13T09:57:03.714Z,6.90
2019-04-13T09:59:33.036Z,7.10
2019-04-13T10:02:02.301Z,7.40
2019-04-13T10:04:31.904Z,7.60
2019-04-13T10:07:01.800Z,7.50
2019-04-13T10:09:31.728Z,7.30
2019-04-13T10:12:12.916Z,7.30
2019-04-13T10:15:18.343Z,7.40
2019-04-13T10:17:54.311Z,7.90
2019-04-13T10:20:22.594Z,8.00
2019-04-13T10:22:53.515Z,7.90
2019-04-13T10:25:23.593Z,7.40
2019-04-13T10:27:52.820Z,7.00
2019-04-13T10:30:22.462Z,6.70
2019-04-13T10:32:52.078Z,6.70
2019-04-13T10:35:21.342Z,6.90
2019-04-13T10:37:50.623Z,6.90
2019-04-13T10:40:20.268Z,6.80
2019-04-13T10:42:49.514Z,6.80
2019-04-13T10:45:56.268Z,7.00
2019-04-13T10:48:34.467Z,7.00
2019-04-13T10:51:25.963Z,7.10
2019-04-13T10:53:55.292Z,7.40
2019-04-13T10:56:24.453Z,7.60
2019-04-13T10:58:55.144Z,7.90
2019-04-13T11:01:25.548Z,8.10
2019-04-13T11:03:54.907Z,7.80
2019-04-13T11:06:24.436Z,7.60
2019-04-13T11:08:53.929Z,7.50
2019-04-13T11:11:23.209Z,7.40
2019-04-13T11:13:52.513Z,7.40
2019-04-13T11:16:22.066Z,7.30
2019-04-13T11:18:51.410Z,7.20
2019-04-13T11:21:21.084Z,7.20
2019-04-13T11:23:50.573Z,7.20
2019-04-13T11:26:19.827Z,7.30
2019-04-13T11:28:49.360Z,7.70
2019-04-13T11:31:22.859Z,8.10
2019-04-13T11:33:51.054Z,8.10
2019-04-13T11:36:20.482Z,8.10
2019-04-13T11:38:49.732Z,8.40
2019-04-13T11:41:50.109Z,8.70
2019-04-13T11:44:54.045Z,8.70
2019-04-13T11:47:57.789Z,8.30
2019-04-13T11:50:33.373Z,8.20
2019-04-13T11:53:02.577Z,8.50
2019-04-13T11:55:34.224Z,8.70
2019-04-13T11:58:03.382Z,8.40
2019-04-13T12:00:51.656Z,8.10
2019-04-13T12:03:45.795Z,7.70
2019-04-13T12:06:26.402Z,7.60
2019-04-13T12:09:05.987Z,7.90
2019-04-13T12:12:00.107Z,8.20
2019-04-13T12:14:48.398Z,8.10
2019-04-13T12:17:35.778Z,8.00
2019-04-13T12:20:20.908Z,8.20
2019-04-13T12:22:50.202Z,8.80
2019-04-13T12:25:19.804Z,9.30
2019-04-13T12:27:49.308Z,9.10
2019-04-13T12:30:23.041Z,8.80
2019-04-13T12:32:52.280Z,8.40
2019-04-13T12:35:21.459Z,8.10
2019-04-13T12:37:51.010Z,8.10
2019-04-13T12:40:48.315Z,8.10
2019-04-13T12:43:19.136Z,8.30
2019-04-13T12:45:48.440Z,8.80
2019-04-13T12:48:18.794Z,8.90
2019-04-13T12:50:48.080Z,9.10
2019-04-13T12:53:17.345Z,9.40
2019-04-13T12:55:46.528Z,9.60
2019-04-13T12:58:15.800Z,9.30
2019-04-13T13:00:52.986Z,9.10
2019-04-13T13:03:24.795Z,8.60
2019-04-13T13:05:55.528Z,8.40
2019-04-13T13:08:25.640Z,8.10
2019-04-13T13:10:54.870Z,8.20
2019-04-13T13:13:24.376Z,8.60
2019-04-13T13:15:53.624Z,8.90
2019-04-13T13:18:26.116Z,8.90
2019-04-13T13:21:08.419Z,8.90
2019-04-13T13:23:37.651Z,8.90
2019-04-13T13:26:07.326Z,9.00
2019-04-13T13:28:36.500Z,9.00
2019-04-13T13:31:06.095Z,9.10
2019-04-13T13:33:37.806Z,9.40
2019-04-13T13:36:06.428Z,9.50
2019-04-13T13:38:38.855Z,9.50
2019-04-13T13:41:08.093Z,9.10
2019-04-13T13:43:37.284Z,8.80
2019-04-13T13:46:06.438Z,8.50
2019-04-13T13:48:35.967Z,8.10
2019-04-13T13:51:05.282Z,8.00
2019-04-13T13:53:34.910Z,8.20
2019-04-13T13:56:04.290Z,8.50
2019-04-13T13:58:41.382Z,8.80
2019-04-13T14:01:26.327Z,9.00
2019-04-13T14:03:55.648Z,9.00
2019-04-13T14:06:25.004Z,9.20
2019-04-13T14:08:54.197Z,9.40
2019-04-13T14:11:23.539Z,9.50
2019-04-13T14:13:52.871Z,9.00
2019-04-13T14:16:22.136Z,8.80
2019-04-13T14:18:51.622Z,8.70
2019-04-13T14:21:20.952Z,8.80
2019-04-13T14:23:50.547Z,9.10
2019-04-13T14:26:20.155Z,9.20
2019-04-13T14:28:49.663Z,9.00
2019-04-13T14:31:19.021Z,8.90
2019-04-13T14:33:48.577Z,8.50
2019-04-13T14:36:18.184Z,8.10
2019-04-13T14:38:47.789Z,8.00
2019-04-13T14:41:16.964Z,7.90
2019-04-13T14:43:48.118Z,8.00
2019-04-13T14:46:17.043Z,8.00
2019-04-13T14:48:46.456Z,8.30
2019-04-13T14:51:20.232Z,8.40
2019-04-13T14:53:47.154Z,8.40
2019-04-13T14:56:19.260Z,8.60
2019-04-13T14:58:48.537Z,8.60
2019-04-13T15:01:18.473Z,8.60
2019-04-13T15:03:47.812Z,8.40
2019-04-13T15:06:18.003Z,8.10
2019-04-13T15:08:48.319Z,7.90
2019-04-13T15:11:17.839Z,8.00
2019-04-13T15:13:47.232Z,8.10
2019-04-13T15:16:20.359Z,8.00
2019-04-13T15:18:56.643Z,8.00
2019-04-13T15:21:30.246Z,8.00
2019-04-13T15:23:57.916Z,7.60
2019-04-13T15:26:27.637Z,7.40
2019-04-13T15:28:58.111Z,7.30
2019-04-13T15:31:31.823Z,7.20
2019-04-13T15:34:00.556Z,7.30
2019-04-13T15:36:32.317Z,7.40
2019-04-13T15:39:04.380Z,7.40
2019-04-13T15:41:40.041Z,7.50
2019-04-13T15:44:06.461Z,7.50
2019-04-13T15:46:35.194Z,7.50
2019-04-13T15:49:04.712Z,7.60
2019-04-13T15:51:34.476Z,7.60
2019-04-13T15:54:05.322Z,7.50
2019-04-13T15:56:34.836Z,7.50
2019-04-13T15:59:04.103Z,7.40
2019-04-13T16:01:34.592Z,7.40
2019-04-13T16:04:05.361Z,7.40
2019-04-13T16:06:35.865Z,7.30
2019-04-13T16:09:25.436Z,7.20
2019-04-13T16:12:01.044Z,7.20
2019-04-13T16:14:26.918Z,7.30
2019-04-13T16:16:56.678Z,7.40
2019-04-13T16:19:27.695Z,7.50
2019-04-13T16:21:58.176Z,7.60
2019-04-13T16:24:28.678Z,7.70
2019-04-13T16:26:59.089Z,7.80
2019-04-13T16:30:02.760Z,7.90
2019-04-13T16:32:54.095Z,8.00
2019-04-13T16:35:40.948Z,7.60
2019-04-13T16:38:11.243Z,7.40
2019-04-13T16:40:41.524Z,7.20
2019-04-13T16:43:11.721Z,7.10
2019-04-13T16:45:54.945Z,7.00
2019-04-13T16:48:43.321Z,6.90
2019-04-13T16:51:47.819Z,7.00
2019-04-13T16:54:25.881Z,7.10
2019-04-13T16:57:13.195Z,7.10
2019-04-13T17:00:01.617Z,7.10
2019-04-13T17:02:56.816Z,7.10
2019-04-13T17:05:29.032Z,7.10
2019-04-13T17:07:59.122Z,7.00
2019-04-13T17:10:29.301Z,6.70
2019-04-13T17:12:58.970Z,6.60
2019-04-13T17:15:29.199Z,6.50
2019-04-13T17:17:59.394Z,6.40
2019-04-13T17:20:41.985Z,6.40
2019-04-13T17:23:48.273Z,6.40
2019-04-13T17:26:46.229Z,6.30
2019-04-13T17:29:42.093Z,6.20
2019-04-13T17:32:22.712Z,6.10
2019-04-13T17:34:55.408Z,6.10
2019-04-13T17:37:25.533Z,6.00
2019-04-13T17:39:55.139Z,5.90
2019-04-13T17:42:46.125Z,5.90
2019-04-13T17:45:37.618Z,5.80
2019-04-13T17:48:18.819Z,5.70
2019-04-13T17:51:08.023Z,5.60
2019-04-13T17:53:43.550Z,5.50
2019-04-13T17:56:24.038Z,5.50
2019-04-13T17:59:22.517Z,5.40
2019-04-13T18:02:09.597Z,5.30
2019-04-13T18:04:58.015Z,5.20
2019-04-13T18:07:46.421Z,5.10
2019-04-13T18:10:50.533Z,5.10
2019-04-13T18:13:55.911Z,5.00
2019-04-13T18:16:44.238Z,5.00
2019-04-13T18:19:23.417Z,5.00
2019-04-13T18:21:53.735Z,4.90
2019-04-13T18:24:24.217Z,4.80
2019-04-13T18:26:54.339Z,4.70
2019-04-13T18:29:23.989Z,4.70
2019-04-13T18:31:54.507Z,4.50
2019-04-13T18:34:26.697Z,4.50
2019-04-13T18:36:55.329Z,4.40
2019-04-13T18:39:25.602Z,4.30
2019-04-13T18:41:55.311Z,4.30
2019-04-13T18:44:25.717Z,4.20
2019-04-13T18:46:55.162Z,4.20
2019-04-13T18:49:24.433Z,4.10
2019-04-13T18:51:54.364Z,4.00
2019-04-13T18:54:23.786Z,4.00
2019-04-13T18:56:53.828Z,4.00
2019-04-13T18:59:23.690Z,3.90
2019-04-13T19:01:53.849Z,3.90
2019-04-13T19:04:23.706Z,3.80
2019-04-13T19:06:53.060Z,3.80
2019-04-13T19:09:22.624Z,3.70
2019-04-13T19:11:52.005Z,3.70
2019-04-13T19:14:21.734Z,3.60
2019-04-13T19:16:51.318Z,3.50
2019-04-13T19:19:20.783Z,3.40
2019-04-13T19:21:50.675Z,3.40
2019-04-13T19:24:20.238Z,3.30
2019-04-13T19:26:49.708Z,3.30
2019-04-13T19:29:20.027Z,3.30
2019-04-13T19:31:50.075Z,3.20
2019-04-13T19:34:21.535Z,3.40
2019-04-13T19:36:51.976Z,3.10
2019-04-13T19:39:21.354Z,3.10
2019-04-13T19:41:51.244Z,3.20
2019-04-13T19:44:20.591Z,3.20
2019-04-13T19:46:49.972Z,3.20
2019-04-13T19:49:19.423Z,3.20
2019-04-13T19:52:05.106Z,3.20
2019-04-13T19:54:34.564Z,3.20
2019-04-13T19:57:04.049Z,3.20
2019-04-13T19:59:34.136Z,3.10
2019-04-13T20:02:03.651Z,3.10
2019-04-13T20:04:33.457Z,3.00
2019-04-13T20:07:02.928Z,3.00
2019-04-13T20:09:32.352Z,2.90
2019-04-13T20:12:01.777Z,2.80
2019-04-13T20:14:32.931Z,2.80
2019-04-13T20:17:02.602Z,2.70
2019-04-13T20:19:32.650Z,2.70
2019-04-13T20:22:02.780Z,2.60
2019-04-13T20:24:34.093Z,2.60
2019-04-13T20:27:04.444Z,2.50
2019-04-13T20:29:33.942Z,2.50
2019-04-13T20:32:03.841Z,2.40
2019-04-13T20:34:33.830Z,2.40
2019-04-13T20:37:03.496Z,2.40
2019-04-13T20:39:35.191Z,2.30
2019-04-13T20:42:11.029Z,2.20
2019-04-13T20:44:36.668Z,2.20
2019-04-13T20:47:06.898Z,2.20
2019-04-13T20:49:36.836Z,2.20
2019-04-13T20:52:07.151Z,2.20
2019-04-13T20:54:36.387Z,2.20
2019-04-13T20:57:06.419Z,2.10
2019-04-13T20:59:36.750Z,2.10
2019-04-13T21:02:07.039Z,2.10
2019-04-13T21:04:37.030Z,2.10
2019-04-13T21:07:07.400Z,2.10
2019-04-13T21:09:36.825Z,2.00
2019-04-13T21:12:06.026Z,2.00
2019-04-13T21:14:40.243Z,2.00
2019-04-13T21:17:11.309Z,1.90
2019-04-13T21:19:41.462Z,1.90
2019-04-13T21:22:11.607Z,1.90
2019-04-13T21:24:41.662Z,1.80
2019-04-13T21:27:11.731Z,1.80
2019-04-13T21:29:41.531Z,1.80
2019-04-13T21:32:11.806Z,1.80
2019-04-13T21:34:41.837Z,1.80
2019-04-13T21:37:12.243Z,1.70
2019-04-13T21:39:41.861Z,1.70
2019-04-13T21:42:11.340Z,1.60
2019-04-13T21:44:44.416Z,1.50
2019-04-13T21:47:11.983Z,1.50
2019-04-13T21:49:42.505Z,1.50
2019-04-13T21:52:21.573Z,1.50
2019-04-13T21:54:51.823Z,1.50
2019-04-13T21:57:21.935Z,1.30
2019-04-13T21:59:51.997Z,1.30
2019-04-13T22:02:24.664Z,1.30
2019-04-13T22:04:54.684Z,1.30
2019-04-13T22:07:24.515Z,1.30
2019-04-13T22:09:54.385Z,1.30
2019-04-13T22:12:24.371Z,1.40
2019-04-13T22:15:01.450Z,1.40
2019-04-13T22:17:25.074Z,1.40
2019-04-13T22:19:55.085Z,1.30
2019-04-13T22:22:25.017Z,1.30
2019-04-13T22:24:54.918Z,1.30
2019-04-13T22:27:27.027Z,1.20
2019-04-13T22:29:57.453Z,1.20
2019-04-13T22:32:32.366Z,1.20
2019-04-13T22:35:10.638Z,1.20
2019-04-13T22:37:40.780Z,1.20
2019-04-13T22:40:10.502Z,1.20
2019-04-13T22:42:40.458Z,1.10
2019-04-13T22:45:13.435Z,1.10
2019-04-13T22:47:42.968Z,1.10
2019-04-13T22:50:35.094Z,1.00
2019-04-13T22:53:12.794Z,1.10
2019-04-13T22:56:00.462Z,1.00
2019-04-13T22:58:31.016Z,1.00
2019-04-13T23:01:03.590Z,1.00
2019-04-13T23:03:33.245Z,0.90
2019-04-13T23:06:03.188Z,0.90
2019-04-13T23:08:33.491Z,0.90
2019-04-13T23:11:03.922Z,0.80
2019-04-13T23:13:34.279Z,0.80
2019-04-13T23:16:04.173Z,0.70
2019-04-13T23:18:34.131Z,0.70
2019-04-13T23:21:04.947Z,0.60
2019-04-13T23:23:35.484Z,0.50
2019-04-13T23:26:05.893Z,0.50
2019-04-13T23:28:35.682Z,0.50
2019-04-13T23:31:04.973Z,0.50
2019-04-13T23:33:34.546Z,0.50
2019-04-13T23:36:04.928Z,0.40
2019-04-13T23:38:35.347Z,0.40
2019-04-13T23:41:05.999Z,0.40
2019-04-13T23:43:36.509Z,0.40
2019-04-13T23:46:06.852Z,0.30
2019-04-13T23:48:37.167Z,0.30
2019-04-13T23:51:07.771Z,0.30
2019-04-13T23:53:37.971Z,0.40
2019-04-13T23:56:17.379Z,0.30
2019-04-13T23:59:00.137Z,0.30
